Current | Forecast
Updated: 3:00 AM +05 on April 28, 2017
Observed at Perm' Airport, Russia
Temperature 52°F
Humidity 62%
Dew Point 39°F
Wind SSW at 11 mph
Pressure 30.06 in (Steady)
Conditions Clear
Visibility -
UV N/A
Clouds
Yesterday's Maximum 63°F
Yesterday's Minimum 28°F approx.
Yesterday's Heating Degree Days 20 approx.
Sunrise5:26 AM +05
Sunset8:48 PM +05
Moon Rise7:01 AM +05
Moon Set11:14 PM +05
Moon PhaseMoon Phase
Waxing Crescent
Raw METARMETAR USPP 272200Z 21005MPS CAVOK 11/04 Q1018 R21/090060 NOSIG RMK QFE752


Monday
. High: 71° F.
Tuesday
. High: 71° F.
Wednesday
. High: 75° F.
Thursday
. High: 53° F.
Friday
. High: 51° F.
Saturday
. High: 55° F.
Sunday
. High: 53° F.
Monday
. High: 55° F.

Units: English | Metric

Find the Weather for any City, State or Zipcode, or Country:

U.S. State List | Severe Weather | Tropical Storms | Ski Conditions
United States | Canada | Central America | South America | Asia | Europe | Australia | Africa | Islands

Weather Underground

© Copyright 2017
The Weather Company, LLC